Palm Beach, FL (33480)

4:11 PM EDT on April 26, 2017 (GMT -0400)
Downtown | | Change Station

Elev 0 ft 26.71 °N, 80.05 °W | Updated 8 minutes ago

Partly Cloudy
Partly Cloudy
81.0 °F
Feels Like 83 °F
N
3.7
Wind Variable Wind from WSW
Gusts 8.7 mph

Today
High -- | Low -- °F
--% Chance of Precip.
Yesterday
High -- | Low -- °F
Precip. -- in
Pressure 29.88 in
Visibility 10.0 miles
Clouds Scattered Clouds 4700 ft
Scattered Clouds 7000 ft
Heat Index 83 °F
Dew Point 66 °F
Humidity 59%
Rainfall Not available.
Snow Depth Not available.
6:45 AM 7:50 PM
New Moon, 0% visible
METAR KPBI 261953Z 11013KT 10SM SCT047 SCT070 27/16 A2988 RMK AO2 SLP119 T02720161
Pressure 29.88 in
Visibility 10.0 miles
Clouds Scattered Clouds 4700 ft
Scattered Clouds 7000 ft
Heat Index 83 °F
Dew Point 66 °F
Humidity 59%
Rainfall Not available.
Snow Depth Not available.
6:45 AM 7:50 PM
New Moon, 0% visible
METAR KPBI 261953Z 11013KT 10SM SCT047 SCT070 27/16 A2988 RMK AO2 SLP119 T02720161

Get Severe Weather Alerts

Thanks for signing up!

Be on the lookout for a verification email in your inbox.

You'll start receiving the daily forecast at 8 AM.

×

10-Day Weather Forecast

Almanac

Astronomy

Apr. 26, 2017 Rise Set
Actual Time
Civil Twilight
Nautical Twilight
Astronomical Twilight
Moon
Length of Visible Light
Length of Day
Tomorrow will be .
, % of the Moon is Illuminated

Today's Extremes

State Highs State Lows

Community

WunderPhotos

WunderBlog® & News

Nearby

Air Quality

  Air Quality AQ Index Pollutant
Not available.

Snow Depth

Station Depth Elevation

Earthquake Activity

City Distance Mag. Time & Date
Minimum magnitude displayed is 2.5.

Coastal Water Temperatures

Place Temperature

Stations

Nearby Weather Stations

Station Location Temp. Windchill Dew Point Humidity Wind Precip. Elev Updated Type
                   

Watches & Warnings

There are currently no watches in effect.